Empire, Colorado
Current Conditions -  °F | °C
As of 5:15 PM on Sunday 25 Jan 2015 (Local Time) from K0CO Reporting Station
Broken Clouds Broken Clouds  
Wind Chill:   Ceiling: 100
Heat Index: 19°   Visibility: NA
Dew Point: 12°   Wind: 28mph
Humidity: 74%   Direction: 330°NNW
Pressure: 30.41"   Gusts: 39mph
Location:  39.76°N, 105.68°W
Report Text: K0CO 260015Z AUTO 33024G34KT BKN001 BKN012 M07/M11 A3041 RMK AO2 PWINO
Loading
Personal Weather Stations






























Interactive Weather Map New forecast layout! Learn more

10-Day Weather Forecast

Advertisements
Track Severe Weather on mobile